createdAt,value
2022-08-19T00:02:06.779Z,10.20
2022-08-19T00:04:38.104Z,10.40
2022-08-19T00:07:09.167Z,10.40
2022-08-19T00:09:37.907Z,9.70
2022-08-19T00:12:07.540Z,9.60
2022-08-19T00:14:36.340Z,9.80
2022-08-19T00:17:06.170Z,9.30
2022-08-19T00:19:37.199Z,8.70
2022-08-19T00:22:07.417Z,9.00
2022-08-19T00:24:37.073Z,8.70
2022-08-19T00:27:25.549Z,8.20
2022-08-19T00:29:57.028Z,8.70
2022-08-19T00:32:27.215Z,8.50
2022-08-19T00:34:56.983Z,9.30
2022-08-19T00:37:27.870Z,9.50
2022-08-19T00:39:59.046Z,9.90
2022-08-19T00:42:29.583Z,9.50
2022-08-19T00:44:58.960Z,8.90
2022-08-19T00:47:27.890Z,8.60
2022-08-19T00:49:59.592Z,9.90
2022-08-19T00:52:36.644Z,9.70
2022-08-19T00:55:12.948Z,9.30
2022-08-19T00:57:49.411Z,10.10
2022-08-19T01:00:20.359Z,9.40
2022-08-19T01:02:49.649Z,9.40
2022-08-19T01:05:24.237Z,8.60
2022-08-19T01:07:55.737Z,9.00
2022-08-19T01:10:36.133Z,9.40
2022-08-19T01:13:06.585Z,9.10
2022-08-19T01:15:41.781Z,8.80
2022-08-19T01:18:13.290Z,9.70
2022-08-19T01:20:43.053Z,9.20
2022-08-19T01:23:13.626Z,9.10
2022-08-19T01:25:51.128Z,9.10
2022-08-19T01:28:33.973Z,10.00
2022-08-19T01:31:26.822Z,9.60
2022-08-19T01:33:59.577Z,9.60
2022-08-19T01:36:30.166Z,9.10
2022-08-19T01:39:00.183Z,8.90
2022-08-19T01:41:28.777Z,9.10
2022-08-19T01:44:09.950Z,9.60
2022-08-19T01:46:49.548Z,9.70
2022-08-19T01:49:21.423Z,9.50
2022-08-19T01:51:51.655Z,8.50
2022-08-19T01:54:27.529Z,9.20
2022-08-19T01:57:03.062Z,9.10
2022-08-19T01:59:33.962Z,9.80
2022-08-19T02:02:02.847Z,9.50
2022-08-19T02:04:32.001Z,9.40
2022-08-19T02:07:00.459Z,9.60
2022-08-19T02:09:29.613Z,9.10
2022-08-19T02:11:59.590Z,10.00
2022-08-19T02:14:28.662Z,10.30
2022-08-19T02:16:57.436Z,10.30
2022-08-19T02:19:25.686Z,10.00
2022-08-19T02:21:54.002Z,10.20
2022-08-19T02:24:22.979Z,8.90
2022-08-19T02:26:52.617Z,10.10
2022-08-19T02:29:21.473Z,9.80
2022-08-19T02:31:49.910Z,10.50
2022-08-19T02:34:19.248Z,10.60
2022-08-19T02:36:51.640Z,9.30
2022-08-19T02:39:20.975Z,9.70
2022-08-19T02:41:50.592Z,10.10
2022-08-19T02:44:31.053Z,9.40
2022-08-19T02:47:00.297Z,9.90
2022-08-19T02:49:29.354Z,10.80
2022-08-19T02:52:04.388Z,10.40
2022-08-19T02:54:35.598Z,9.70
2022-08-19T02:57:05.053Z,10.00
2022-08-19T02:59:34.907Z,10.40
2022-08-19T03:02:03.882Z,10.60
2022-08-19T03:04:32.392Z,10.40
2022-08-19T03:07:10.912Z,11.30
2022-08-19T03:09:43.579Z,9.30
2022-08-19T03:12:13.376Z,10.90
2022-08-19T03:14:42.375Z,10.20
2022-08-19T03:17:11.050Z,10.20
2022-08-19T03:19:40.941Z,11.20
2022-08-19T03:22:09.968Z,9.60
2022-08-19T03:24:39.360Z,9.80
2022-08-19T03:27:07.976Z,10.60
2022-08-19T03:29:44.004Z,11.10
2022-08-19T03:32:24.440Z,10.90
2022-08-19T03:35:02.362Z,11.00
2022-08-19T03:37:30.798Z,11.00
2022-08-19T03:39:59.475Z,10.80
2022-08-19T03:42:31.931Z,9.70
2022-08-19T03:45:01.724Z,10.10
2022-08-19T03:47:31.786Z,10.00
2022-08-19T03:50:00.441Z,12.10
2022-08-19T03:52:30.163Z,10.70
2022-08-19T03:54:59.468Z,10.70
2022-08-19T03:57:31.987Z,9.50
2022-08-19T04:00:03.966Z,9.80
2022-08-19T04:02:56.368Z,10.60
2022-08-19T04:05:30.379Z,11.40
2022-08-19T04:08:00.614Z,11.70
2022-08-19T04:10:31.291Z,11.20
2022-08-19T04:13:00.078Z,11.50
2022-08-19T04:15:31.465Z,9.90
2022-08-19T04:18:00.378Z,9.60
2022-08-19T04:20:30.232Z,10.00
2022-08-19T04:22:59.760Z,9.90
2022-08-19T04:25:30.046Z,9.20
2022-08-19T04:27:58.643Z,10.30
2022-08-19T04:30:29.420Z,9.80
2022-08-19T04:32:57.958Z,10.50
2022-08-19T04:35:26.653Z,9.70
2022-08-19T04:37:55.549Z,10.20
2022-08-19T04:40:42.828Z,9.80
2022-08-19T04:43:13.685Z,9.70
2022-08-19T04:45:45.999Z,9.50
2022-08-19T04:48:26.327Z,9.40
2022-08-19T04:51:01.029Z,9.50
2022-08-19T04:53:37.721Z,9.60
2022-08-19T04:56:13.095Z,13.00
2022-08-19T04:58:44.204Z,12.60
2022-08-19T05:01:21.859Z,11.80
2022-08-19T05:03:52.572Z,12.20
2022-08-19T05:06:23.024Z,21.80
2022-08-19T05:08:51.997Z,9.70
2022-08-19T05:11:29.260Z,9.00
2022-08-19T05:13:59.120Z,9.30
2022-08-19T05:16:30.341Z,8.60
2022-08-19T05:19:17.403Z,9.30
2022-08-19T05:22:05.892Z,9.50
2022-08-19T05:24:35.555Z,9.30
2022-08-19T05:27:06.735Z,9.00
2022-08-19T05:29:36.622Z,8.40
2022-08-19T05:32:09.479Z,8.30
2022-08-19T05:34:39.775Z,8.90
2022-08-19T05:37:10.029Z,8.00
2022-08-19T05:39:39.245Z,9.20
2022-08-19T05:42:13.417Z,8.30
2022-08-19T05:44:48.504Z,8.30
2022-08-19T05:47:20.912Z,8.30
2022-08-19T05:49:52.908Z,10.30
2022-08-19T05:52:25.705Z,7.80
2022-08-19T05:54:57.078Z,9.60
2022-08-19T05:57:30.136Z,12.40
2022-08-19T06:00:01.404Z,8.00
2022-08-19T06:02:46.005Z,7.10
2022-08-19T06:05:14.485Z,8.00
2022-08-19T06:07:42.977Z,7.30
2022-08-19T06:10:13.546Z,7.20
2022-08-19T06:12:42.676Z,7.00
2022-08-19T06:15:15.228Z,7.00
2022-08-19T06:17:45.577Z,7.30
2022-08-19T06:20:52.280Z,6.70
2022-08-19T06:23:12.711Z,7.40
2022-08-19T06:25:45.868Z,6.80
2022-08-19T06:28:15.949Z,6.70
2022-08-19T06:30:47.368Z,6.50
2022-08-19T06:33:15.820Z,6.60
2022-08-19T06:38:13.871Z,7.30
2022-08-19T06:43:18.635Z,7.20
2022-08-19T06:45:47.869Z,6.90
2022-08-19T06:48:16.532Z,7.60
2022-08-19T06:50:48.711Z,7.30
2022-08-19T06:53:20.489Z,6.60
2022-08-19T06:55:58.692Z,6.30
2022-08-19T06:58:33.470Z,6.70
2022-08-19T07:01:08.715Z,6.30
2022-08-19T07:03:40.423Z,6.00
2022-08-19T07:06:41.162Z,6.60
2022-08-19T07:09:18.350Z,6.40
2022-08-19T07:11:51.213Z,6.20
2022-08-19T07:14:25.148Z,6.30
2022-08-19T07:16:59.453Z,6.00
2022-08-19T07:19:30.243Z,6.10
2022-08-19T07:22:06.125Z,6.20
2022-08-19T07:24:50.991Z,5.60
2022-08-19T07:27:26.507Z,6.20
2022-08-19T07:29:59.683Z,5.90
2022-08-19T07:32:33.103Z,6.10
2022-08-19T07:35:10.708Z,5.90
2022-08-19T07:37:45.316Z,5.50
2022-08-19T07:40:14.651Z,5.80
2022-08-19T07:42:44.676Z,5.90
2022-08-19T07:45:13.401Z,5.50
2022-08-19T07:47:47.952Z,5.70
2022-08-19T07:50:21.828Z,5.60
2022-08-19T07:52:51.254Z,5.30
2022-08-19T07:55:42.352Z,5.50
2022-08-19T07:58:17.275Z,5.30
2022-08-19T08:00:52.855Z,5.50
2022-08-19T08:03:42.936Z,5.60
2022-08-19T08:06:33.456Z,5.30
2022-08-19T08:09:17.125Z,5.20
2022-08-19T08:11:55.087Z,4.90
2022-08-19T08:14:34.978Z,5.50
2022-08-19T08:17:10.907Z,5.30
2022-08-19T08:19:42.364Z,4.70
2022-08-19T08:22:36.079Z,5.60
2022-08-19T08:25:13.257Z,5.10
2022-08-19T08:27:51.048Z,5.00
2022-08-19T08:30:31.067Z,5.40
2022-08-19T08:33:09.043Z,5.60
2022-08-19T08:35:38.111Z,5.30
2022-08-19T08:38:07.305Z,5.00
2022-08-19T08:40:54.183Z,5.00
2022-08-19T08:43:36.746Z,5.60
2022-08-19T08:46:12.309Z,4.80
2022-08-19T08:48:52.549Z,4.80
2022-08-19T08:51:35.283Z,5.10
2022-08-19T08:54:07.887Z,4.20
2022-08-19T08:56:46.338Z,4.70
2022-08-19T08:59:29.724Z,4.50
2022-08-19T09:01:58.310Z,4.70
2022-08-19T09:04:27.442Z,3.90
2022-08-19T09:07:33.875Z,4.30
2022-08-19T09:10:49.756Z,4.40
2022-08-19T09:13:23.973Z,4.10
2022-08-19T09:16:03.717Z,4.20
2022-08-19T09:18:54.594Z,4.10
2022-08-19T09:21:30.554Z,3.90
2022-08-19T09:24:06.249Z,4.10
2022-08-19T09:26:48.185Z,4.40
2022-08-19T09:29:23.975Z,4.00
2022-08-19T09:31:57.021Z,4.00
2022-08-19T09:34:30.471Z,3.50
2022-08-19T09:37:08.858Z,3.90
2022-08-19T09:39:44.139Z,3.70
2022-08-19T09:42:16.101Z,3.70
2022-08-19T09:44:48.057Z,3.80
2022-08-19T09:47:20.483Z,3.90
2022-08-19T09:49:51.836Z,3.80
2022-08-19T09:52:21.026Z,3.70
2022-08-19T09:54:55.499Z,3.70
2022-08-19T09:57:24.855Z,3.70
2022-08-19T09:59:54.622Z,3.50
2022-08-19T10:02:26.214Z,3.60
2022-08-19T10:05:23.069Z,3.70
2022-08-19T10:07:57.907Z,3.90
2022-08-19T10:10:26.323Z,3.90
2022-08-19T10:12:56.302Z,4.20
2022-08-19T10:15:29.229Z,3.50
2022-08-19T10:20:31.656Z,3.90
2022-08-19T10:23:01.096Z,3.90
2022-08-19T10:25:32.299Z,3.90
2022-08-19T10:28:03.371Z,3.50
2022-08-19T10:30:37.678Z,3.60
2022-08-19T10:33:10.987Z,3.50
2022-08-19T10:35:42.546Z,3.60
2022-08-19T10:38:30.618Z,3.40
2022-08-19T10:41:09.759Z,3.50
2022-08-19T10:43:39.955Z,3.70
2022-08-19T10:46:16.553Z,3.50
2022-08-19T10:48:46.463Z,3.70
2022-08-19T10:51:34.956Z,3.90
2022-08-19T10:54:06.833Z,3.70
2022-08-19T10:56:53.892Z,3.60
2022-08-19T10:59:26.911Z,4.50
2022-08-19T11:02:01.594Z,3.70
2022-08-19T11:04:33.874Z,3.80
2022-08-19T11:07:03.180Z,3.70
2022-08-19T11:09:34.332Z,3.70
2022-08-19T11:12:06.171Z,3.20
2022-08-19T11:14:35.446Z,3.70
2022-08-19T11:17:07.695Z,5.00
2022-08-19T11:19:40.251Z,4.70
2022-08-19T11:22:16.142Z,3.30
2022-08-19T11:24:49.494Z,4.80
2022-08-19T11:27:20.008Z,4.50
2022-08-19T11:29:48.489Z,3.70
2022-08-19T11:32:17.474Z,3.50
2022-08-19T11:34:46.132Z,3.70
2022-08-19T11:37:16.968Z,3.50
2022-08-19T11:39:51.335Z,3.70
2022-08-19T11:42:42.085Z,3.80
2022-08-19T11:45:12.308Z,3.70
2022-08-19T11:47:43.519Z,4.00
2022-08-19T11:50:12.719Z,3.70
2022-08-19T11:52:41.411Z,3.80
2022-08-19T11:55:10.163Z,4.30
2022-08-19T11:57:39.645Z,4.10
2022-08-19T12:00:10.657Z,3.80
2022-08-19T12:02:44.894Z,3.70
2022-08-19T12:07:44.015Z,3.70
2022-08-19T12:10:22.350Z,3.60
2022-08-19T12:12:58.711Z,3.50
2022-08-19T12:15:49.051Z,3.30
2022-08-19T12:18:17.750Z,3.90
2022-08-19T12:20:48.955Z,3.90
2022-08-19T12:23:17.876Z,4.90
2022-08-19T12:25:52.959Z,3.90
2022-08-19T12:28:24.652Z,3.90
2022-08-19T12:30:54.277Z,3.80
2022-08-19T12:33:25.988Z,4.00
2022-08-19T12:35:54.816Z,3.50
2022-08-19T12:38:28.375Z,3.60
2022-08-19T12:41:00.290Z,3.60
2022-08-19T12:43:33.112Z,4.30
2022-08-19T12:46:03.853Z,3.70
2022-08-19T12:48:36.224Z,3.80
2022-08-19T12:51:11.794Z,3.80
2022-08-19T12:53:40.550Z,4.20
2022-08-19T12:56:13.116Z,4.10
2022-08-19T12:58:49.085Z,3.90
2022-08-19T13:01:23.526Z,3.60
2022-08-19T13:03:54.894Z,4.30
2022-08-19T13:06:23.896Z,4.00
2022-08-19T13:08:56.531Z,3.50
2022-08-19T13:11:27.831Z,3.90
2022-08-19T13:13:56.372Z,3.70
2022-08-19T13:16:29.019Z,3.80
2022-08-19T13:18:58.993Z,3.70
2022-08-19T13:21:29.232Z,3.50
2022-08-19T13:23:59.215Z,3.60
2022-08-19T13:26:29.551Z,3.60
2022-08-19T13:29:16.545Z,3.80
2022-08-19T13:32:04.136Z,3.90
2022-08-19T13:34:38.775Z,4.30
2022-08-19T13:37:08.491Z,4.00
2022-08-19T13:39:37.704Z,3.90
2022-08-19T13:42:08.820Z,4.00
2022-08-19T13:44:37.248Z,3.90
2022-08-19T13:47:09.670Z,3.80
2022-08-19T13:49:38.493Z,3.40
2022-08-19T13:52:06.958Z,4.40
2022-08-19T13:54:36.090Z,4.10
2022-08-19T13:57:05.217Z,3.70
2022-08-19T13:59:35.449Z,4.20
2022-08-19T14:02:06.686Z,4.00
2022-08-19T14:04:37.621Z,3.50
2022-08-19T14:07:06.235Z,4.00
2022-08-19T14:09:34.849Z,3.70
2022-08-19T14:12:06.536Z,3.80
2022-08-19T14:14:42.365Z,3.80
2022-08-19T14:17:13.412Z,4.10
2022-08-19T14:19:44.056Z,4.20
2022-08-19T14:24:52.155Z,3.60
2022-08-19T14:27:20.613Z,3.70
2022-08-19T14:29:49.095Z,3.90
2022-08-19T14:32:17.559Z,4.50
2022-08-19T14:34:48.908Z,3.90
2022-08-19T14:37:19.343Z,3.50
2022-08-19T14:39:47.870Z,3.70
2022-08-19T14:42:22.000Z,3.80
2022-08-19T14:44:50.594Z,3.60
2022-08-19T14:47:20.978Z,3.80
2022-08-19T14:49:53.865Z,4.00
2022-08-19T14:52:23.044Z,4.20
2022-08-19T14:54:52.658Z,5.50
2022-08-19T14:57:22.080Z,4.00
2022-08-19T14:59:52.333Z,4.00
2022-08-19T15:02:35.023Z,4.00
2022-08-19T15:05:05.755Z,4.20
2022-08-19T15:07:35.767Z,3.80
2022-08-19T15:10:10.873Z,3.90
2022-08-19T15:12:41.611Z,4.20
2022-08-19T15:15:15.643Z,3.90
2022-08-19T15:17:46.639Z,3.70
2022-08-19T15:20:22.580Z,4.10
2022-08-19T15:22:51.258Z,4.70
2022-08-19T15:25:24.489Z,4.00
2022-08-19T15:27:55.048Z,3.90
2022-08-19T15:30:29.174Z,3.70
2022-08-19T15:33:02.414Z,4.30
2022-08-19T15:35:33.853Z,3.80
2022-08-19T15:38:03.166Z,3.90
2022-08-19T15:40:32.988Z,3.90
2022-08-19T15:43:02.439Z,3.90
2022-08-19T15:45:35.096Z,3.90
2022-08-19T15:48:05.166Z,3.70
2022-08-19T15:50:35.045Z,4.10
2022-08-19T15:53:08.732Z,4.00
2022-08-19T15:55:45.265Z,4.30
2022-08-19T15:58:35.173Z,3.80
2022-08-19T16:01:27.493Z,4.00
2022-08-19T16:04:16.344Z,4.10
2022-08-19T16:07:00.436Z,3.40
2022-08-19T16:09:31.534Z,4.30
2022-08-19T16:12:04.164Z,4.00
2022-08-19T16:14:35.881Z,4.30
2022-08-19T16:17:05.759Z,3.70
2022-08-19T16:19:34.991Z,4.30
2022-08-19T16:22:04.046Z,4.00
2022-08-19T16:24:37.751Z,4.30
2022-08-19T16:27:07.869Z,4.30
2022-08-19T16:29:39.505Z,4.30
2022-08-19T16:32:14.563Z,3.90
2022-08-19T16:34:43.863Z,3.90
2022-08-19T16:37:13.725Z,4.40
2022-08-19T16:39:44.840Z,4.40
2022-08-19T16:42:15.300Z,4.60
2022-08-19T16:44:46.230Z,4.60
2022-08-19T16:47:17.987Z,4.30
2022-08-19T16:49:53.884Z,4.50
2022-08-19T16:52:27.328Z,4.30
2022-08-19T16:54:56.565Z,4.30
2022-08-19T16:57:25.298Z,4.40
2022-08-19T16:59:53.976Z,4.60
2022-08-19T17:02:30.846Z,4.60
2022-08-19T17:05:01.031Z,4.30
2022-08-19T17:07:33.151Z,4.40
2022-08-19T17:10:06.515Z,4.60
2022-08-19T17:12:38.095Z,4.80
2022-08-19T17:15:14.373Z,4.70
2022-08-19T17:17:43.264Z,4.70
2022-08-19T17:20:11.964Z,4.70
2022-08-19T17:22:46.060Z,4.70
2022-08-19T17:27:43.089Z,4.40
2022-08-19T17:30:14.690Z,4.30
2022-08-19T17:32:44.854Z,4.60
2022-08-19T17:35:24.208Z,4.00
2022-08-19T17:37:54.343Z,4.50
2022-08-19T17:40:23.864Z,4.60
2022-08-19T17:42:54.916Z,4.70
2022-08-19T17:45:24.592Z,4.30
2022-08-19T17:47:56.875Z,4.60
2022-08-19T17:50:26.129Z,4.80
2022-08-19T17:52:57.854Z,5.00
2022-08-19T17:55:29.233Z,4.50
2022-08-19T17:57:58.312Z,5.10
2022-08-19T18:00:27.770Z,4.80
2022-08-19T18:03:01.598Z,4.70
2022-08-19T18:05:34.275Z,4.70
2022-08-19T18:08:02.789Z,5.00
2022-08-19T18:10:35.221Z,4.40
2022-08-19T18:13:16.938Z,5.20
2022-08-19T18:15:48.579Z,5.40
2022-08-19T18:18:17.558Z,4.90
2022-08-19T18:20:50.261Z,4.90
2022-08-19T18:23:44.951Z,5.20
2022-08-19T18:26:10.413Z,16.50
2022-08-19T18:28:49.732Z,22.60
2022-08-19T18:31:20.231Z,24.90
2022-08-19T18:33:52.714Z,23.40
2022-08-19T18:36:50.065Z,23.20
2022-08-19T18:39:29.566Z,29.40
2022-08-19T18:42:18.018Z,17.40
2022-08-19T18:45:05.544Z,22.60
2022-08-19T18:47:54.500Z,19.80
2022-08-19T18:50:24.632Z,22.30
2022-08-19T18:52:56.888Z,27.30
2022-08-19T18:55:28.099Z,20.00
2022-08-19T18:57:56.927Z,16.90
2022-08-19T19:00:25.525Z,14.30
2022-08-19T19:02:54.822Z,10.60
2022-08-19T19:05:25.936Z,10.80
2022-08-19T19:07:54.814Z,10.30
2022-08-19T19:10:25.151Z,10.70
2022-08-19T19:12:56.125Z,9.40
2022-08-19T19:15:26.190Z,9.30
2022-08-19T19:17:55.177Z,9.20
2022-08-19T19:20:26.166Z,10.10
2022-08-19T19:23:07.558Z,10.60
2022-08-19T19:25:49.820Z,11.80
2022-08-19T19:28:29.828Z,11.60
2022-08-19T19:30:59.779Z,11.50
2022-08-19T19:33:29.811Z,12.80
2022-08-19T19:35:58.541Z,12.20
2022-08-19T19:38:28.134Z,12.60
2022-08-19T19:40:57.526Z,11.90
2022-08-19T19:43:29.608Z,12.80
2022-08-19T19:46:10.027Z,11.90
2022-08-19T19:48:39.043Z,11.80
2022-08-19T19:51:09.044Z,12.20
2022-08-19T19:53:39.000Z,11.20
2022-08-19T19:56:10.147Z,11.20
2022-08-19T19:58:43.412Z,10.70
2022-08-19T20:01:21.085Z,9.20
2022-08-19T20:03:54.798Z,6.70
2022-08-19T20:06:29.385Z,6.30
2022-08-19T20:09:17.538Z,7.10
2022-08-19T20:11:55.103Z,9.40
2022-08-19T20:14:35.428Z,9.90
2022-08-19T20:17:05.803Z,6.70
2022-08-19T20:19:37.410Z,6.80
2022-08-19T20:22:07.856Z,6.90
2022-08-19T20:24:37.483Z,8.90
2022-08-19T20:27:07.097Z,9.10
2022-08-19T20:29:41.641Z,9.20
2022-08-19T20:32:13.969Z,8.20
2022-08-19T20:34:45.004Z,10.10
2022-08-19T20:37:13.893Z,9.70
2022-08-19T20:39:44.865Z,7.60
2022-08-19T20:42:13.589Z,7.80
2022-08-19T20:44:45.277Z,7.40
2022-08-19T20:47:14.636Z,8.10
2022-08-19T20:49:45.571Z,7.70
2022-08-19T20:52:15.569Z,8.00
2022-08-19T20:54:44.879Z,7.90
2022-08-19T20:57:15.638Z,7.90
2022-08-19T20:59:45.252Z,7.10
2022-08-19T21:02:16.581Z,6.90
2022-08-19T21:04:45.314Z,6.70
2022-08-19T21:07:16.823Z,6.20
2022-08-19T21:09:45.801Z,7.10
2022-08-19T21:12:14.816Z,6.40
2022-08-19T21:14:47.779Z,7.40
2022-08-19T21:17:18.827Z,6.70
2022-08-19T21:19:47.945Z,6.70
2022-08-19T21:22:18.464Z,7.20
2022-08-19T21:24:50.523Z,6.60
2022-08-19T21:27:19.505Z,6.60
2022-08-19T21:29:49.835Z,6.70
2022-08-19T21:32:20.031Z,6.80
2022-08-19T21:34:48.597Z,6.80
2022-08-19T21:37:24.974Z,5.90
2022-08-19T21:39:57.002Z,6.10
2022-08-19T21:42:28.514Z,6.60
2022-08-19T21:44:57.434Z,6.40
2022-08-19T21:47:28.958Z,6.60
2022-08-19T21:49:57.772Z,6.40
2022-08-19T21:52:27.212Z,6.90
2022-08-19T21:54:58.429Z,6.50
2022-08-19T21:57:28.539Z,6.30
2022-08-19T21:59:57.065Z,6.50
2022-08-19T22:02:28.819Z,6.20
2022-08-19T22:04:59.739Z,7.10
2022-08-19T22:07:28.276Z,6.90
2022-08-19T22:09:56.932Z,6.80
2022-08-19T22:12:29.856Z,6.70
2022-08-19T22:14:59.729Z,6.80
2022-08-19T22:17:29.015Z,6.30
2022-08-19T22:19:59.518Z,6.70
2022-08-19T22:22:31.545Z,6.20
2022-08-19T22:25:24.415Z,6.40
2022-08-19T22:28:06.963Z,6.50
2022-08-19T22:30:42.316Z,6.30
2022-08-19T22:33:18.196Z,6.50
2022-08-19T22:35:49.498Z,6.20
2022-08-19T22:38:22.466Z,6.10
2022-08-19T22:40:53.648Z,6.30
2022-08-19T22:43:32.813Z,6.40
2022-08-19T22:46:02.760Z,7.00
2022-08-19T22:48:33.117Z,7.10
2022-08-19T22:51:20.210Z,6.30
2022-08-19T22:53:49.390Z,6.00
2022-08-19T22:56:21.269Z,6.30
2022-08-19T22:58:50.988Z,6.40
2022-08-19T23:01:29.907Z,6.10
2022-08-19T23:03:59.976Z,6.80
2022-08-19T23:06:33.987Z,7.00
2022-08-19T23:09:08.871Z,7.10
2022-08-19T23:11:41.976Z,6.60
2022-08-19T23:14:14.760Z,6.90
2022-08-19T23:16:51.081Z,7.20
2022-08-19T23:19:21.911Z,6.90
2022-08-19T23:21:53.167Z,6.50
2022-08-19T23:24:22.622Z,6.40
2022-08-19T23:27:13.131Z,6.80
2022-08-19T23:30:01.180Z,6.50
2022-08-19T23:32:35.244Z,6.40
2022-08-19T23:35:04.899Z,6.80
2022-08-19T23:37:37.657Z,7.70
2022-08-19T23:40:10.542Z,7.60
2022-08-19T23:42:46.793Z,8.10
2022-08-19T23:45:23.780Z,8.00
2022-08-19T23:47:54.006Z,8.00
2022-08-19T23:50:29.702Z,7.50
2022-08-19T23:53:01.784Z,6.50
2022-08-19T23:55:34.672Z,6.30
2022-08-19T23:58:10.122Z,6.80
